Time;durP1;ratioP1;P1;durP2;ratioP2;P2;SDS_P1;SDS_P2;PMS_P1;PMS_P2;Temp;Humidity;BMP_temperature;BMP_pressure;BME280_temperature;BME280_humidity;BME280_pressure;Samples;Min_cycle;Max_cycle;Signal;HPM_P1;HPM_P2
2022/01/18 00:00:34;;;;;;;;;;;;;;;2.89;100.00;103897.22;5066178;28;19940;-78
2022/01/18 00:02:59;;;;;;;;;;;;;;;2.83;100.00;103895.31;5033002;28;19991;-78
2022/01/18 00:05:25;;;;;;;;;;;;;;;2.79;100.00;103903.81;5018919;28;20410;-79
2022/01/18 00:07:50;;;;;;;;;;;;;;;2.74;100.00;103906.25;5039462;28;19993;-79
2022/01/18 00:10:16;;;;;;;;;;;;;;;2.70;100.00;103908.66;5065293;28;20019;-79
2022/01/18 00:12:55;;;;;;;;;;;;;;;2.69;100.00;103917.28;5039306;28;19921;-79
2022/01/18 00:20:38;;;;;;;;;;;;;;;2.61;100.00;103915.31;5040077;28;20358;-80
2022/01/18 00:23:04;;;;;;;;;;;;;;;2.53;100.00;103910.66;5039011;28;20366;-79
2022/01/18 00:25:30;;;;;;;;;;;;;;;2.45;100.00;103915.56;5027057;28;19979;-77
2022/01/18 00:27:55;;;;;;;;;;;;;;;2.43;100.00;103917.19;5047525;28;20394;-77
2022/01/18 00:30:48;;;;;;;;;;;;;;;2.46;100.00;103909.53;5032091;28;19955;-80
2022/01/18 00:35:34;;;;;;;;;;;;;;;2.39;100.00;103915.34;5023786;28;19925;-78
2022/01/18 00:37:59;;;;;;;;;;;;;;;2.41;100.00;103908.50;5020331;28;20400;-79
2022/01/18 00:40:25;;;;;;;;;;;;;;;2.28;100.00;103910.63;5014136;28;20190;-78
2022/01/18 00:42:50;;;;;;;;;;;;;;;2.22;100.00;103912.97;5041033;28;20298;-76
2022/01/18 00:45:16;;;;;;;;;;;;;;;2.18;100.00;103908.53;5030578;28;19920;-79
2022/01/18 00:47:41;;;;;;;;;;;;;;;2.14;100.00;103919.59;5040796;28;20369;-78
2022/01/18 00:50:08;;;;;;;;;;;;;;;2.08;100.00;103909.88;5044008;28;19996;-80
2022/01/18 00:52:38;;;;;;;;;;;;;;;2.08;100.00;103919.38;5038901;28;19952;-81
2022/01/18 00:55:04;;;;;;;;;;;;;;;2.06;100.00;103915.81;5049044;28;19917;-80
2022/01/18 00:57:29;;;;;;;;;;;;;;;2.07;100.00;103920.19;5042948;28;19925;-82
2022/01/18 00:59:54;;;;;;;;;;;;;;;2.10;100.00;103910.81;5035442;28;19998;-78
2022/01/18 01:02:20;;;;;;;;;;;;;;;2.09;100.00;103906.44;5041842;28;19928;-80
2022/01/18 01:04:48;;;;;;;;;;;;;;;2.07;100.00;103900.31;5037801;28;19924;-78
2022/01/18 01:07:15;;;;;;;;;;;;;;;2.06;100.00;103903.72;5045630;28;19924;-80
2022/01/18 01:09:40;;;;;;;;;;;;;;;1.99;100.00;103902.59;5036418;28;19936;-81
2022/01/18 01:12:06;;;;;;;;;;;;;;;1.99;100.00;103901.75;5038751;28;19916;-78
2022/01/18 01:14:33;;;;;;;;;;;;;;;1.93;100.00;103907.56;5045067;28;19917;-79
2022/01/18 01:17:07;;;;;;;;;;;;;;;1.86;100.00;103913.34;5039182;28;19921;-77
2022/01/18 01:46:26;;;;;;;;;;;;;;;1.89;100.00;103902.19;5027347;28;19924;-76
2022/01/18 01:48:54;;;;;;;;;;;;;;;1.86;100.00;103905.56;5035909;28;20011;-78
2022/01/18 01:51:21;;;;;;;;;;;;;;;1.84;100.00;103897.72;5023181;28;20419;-75
2022/01/18 01:53:47;;;;;;;;;;;;;;;1.89;100.00;103910.84;5037573;28;19991;-75
2022/01/18 01:56:12;;;;;;;;;;;;;;;1.89;100.00;103916.03;5039536;28;20137;-77
2022/01/18 01:58:37;;;;;;;;;;;;;;;1.84;100.00;103917.59;5042590;28;19994;-77
2022/01/18 02:01:04;;;;;;;;;;;;;;;1.85;100.00;103917.63;5043522;28;19922;-77
2022/01/18 02:03:30;;;;;;;;;;;;;;;1.79;100.00;103912.22;5051475;28;19921;-76
2022/01/18 02:05:55;;;;;;;;;;;;;;;1.86;100.00;103908.16;5052146;28;19921;-78
2022/01/18 02:08:21;;;;;;;;;;;;;;;1.92;100.00;103908.38;5031675;28;19925;-78
2022/01/18 02:10:46;;;;;;;;;;;;;;;1.92;100.00;103900.59;5052956;28;20290;-77
2022/01/18 02:13:12;;;;;;;;;;;;;;;1.84;100.00;103902.03;5069358;28;20001;-77
2022/01/18 02:15:41;;;;;;;;;;;;;;;1.85;100.00;103901.19;5057578;28;20385;-77
2022/01/18 02:23:29;;;;;;;;;;;;;;;1.85;100.00;103901.19;5046679;28;19921;-76
2022/01/18 02:25:54;;;;;;;;;;;;;;;1.81;100.00;103899.31;5050259;28;19920;-74
2022/01/18 02:28:20;;;;;;;;;;;;;;;1.73;100.00;103905.91;5051026;28;19978;-74
2022/01/18 02:30:46;;;;;;;;;;;;;;;1.66;100.00;103903.03;5054058;28;19920;-76
2022/01/18 02:33:12;;;;;;;;;;;;;;;1.60;100.00;103902.81;5048862;28;19921;-75
2022/01/18 02:35:37;;;;;;;;;;;;;;;1.56;100.00;103893.13;5052389;28;20080;-73
2022/01/18 02:38:03;;;;;;;;;;;;;;;1.52;100.00;103899.03;5066379;28;19982;-74
2022/01/18 02:40:30;;;;;;;;;;;;;;;1.60;100.00;103902.81;5046799;28;19944;-78
2022/01/18 02:45:52;;;;;;;;;;;;;;;1.57;100.00;103887.13;5048983;28;19998;-77
2022/01/18 02:48:17;;;;;;;;;;;;;;;1.54;100.00;103895.66;5039348;28;20783;-78
2022/01/18 02:50:43;;;;;;;;;;;;;;;1.53;100.00;103890.44;5040244;28;19917;-78
2022/01/18 02:53:08;;;;;;;;;;;;;;;1.61;100.00;103899.41;5038896;28;19917;-76
2022/01/18 02:55:34;;;;;;;;;;;;;;;1.69;100.00;103905.78;5042458;28;19921;-78
2022/01/18 02:58:05;;;;;;;;;;;;;;;1.69;100.00;103903.19;5044568;28;19925;-77
2022/01/18 03:00:42;;;;;;;;;;;;;;;1.71;100.00;103908.41;5043454;28;19931;-77
2022/01/18 03:05:48;;;;;;;;;;;;;;;1.78;100.00;103906.94;5043835;28;20095;-78
2022/01/18 03:08:13;;;;;;;;;;;;;;;1.79;100.00;103904.44;5035870;28;19935;-76
2022/01/18 03:10:39;;;;;;;;;;;;;;;1.79;100.00;103906.13;5040990;28;19921;-77
2022/01/18 03:13:05;;;;;;;;;;;;;;;1.80;100.00;103905.31;5037023;28;20298;-74
2022/01/18 03:15:31;;;;;;;;;;;;;;;1.77;100.00;103900.91;5044181;28;19927;-75
2022/01/18 03:17:56;;;;;;;;;;;;;;;1.75;100.00;103901.66;5044739;28;19928;-76
2022/01/18 03:20:23;;;;;;;;;;;;;;;1.85;100.00;103904.66;5047277;28;19921;-75
2022/01/18 03:22:49;;;;;;;;;;;;;;;1.81;100.00;103907.97;5042038;28;19927;-77
2022/01/18 03:30:42;;;;;;;;;;;;;;;1.80;100.00;103911.41;5042057;28;20011;-72
2022/01/18 03:33:09;;;;;;;;;;;;;;;1.82;100.00;103906.25;5040912;28;19924;-73
2022/01/18 03:35:35;;;;;;;;;;;;;;;1.84;100.00;103909.81;5038418;28;19928;-78
2022/01/18 03:38:00;;;;;;;;;;;;;;;1.77;100.00;103910.34;5044026;28;19921;-80
2022/01/18 03:40:25;;;;;;;;;;;;;;;1.76;100.00;103906.03;5039811;28;19923;-73
2022/01/18 03:42:52;;;;;;;;;;;;;;;1.70;100.00;103902.34;5043539;28;19921;-75
2022/01/18 03:45:32;;;;;;;;;;;;;;;1.65;100.00;103900.41;5058378;28;19947;-75
2022/01/18 03:48:02;;;;;;;;;;;;;;;1.69;100.00;103900.59;5036606;28;19930;-75
2022/01/18 03:50:27;;;;;;;;;;;;;;;1.79;100.00;103911.31;5025636;28;20294;-75
2022/01/18 03:52:53;;;;;;;;;;;;;;;1.78;100.00;103906.94;5041139;28;19917;-74
2022/01/18 03:55:19;;;;;;;;;;;;;;;1.75;100.00;103912.91;5043454;28;19968;-74
2022/01/18 03:57:45;;;;;;;;;;;;;;;1.79;100.00;103911.31;5032460;28;20380;-72
2022/01/18 04:00:12;;;;;;;;;;;;;;;1.78;100.00;103910.44;5034833;28;20258;-72
2022/01/18 04:02:38;;;;;;;;;;;;;;;1.77;100.00;103907.78;5038538;28;19928;-72
2022/01/18 04:05:03;;;;;;;;;;;;;;;1.74;100.00;103910.25;5042998;28;19973;-73
2022/01/18 04:07:31;;;;;;;;;;;;;;;1.73;100.00;103919.72;5038961;28;20153;-77
2022/01/18 04:09:56;;;;;;;;;;;;;;;1.72;100.00;103920.53;5035423;28;20384;-77
2022/01/18 04:12:21;;;;;;;;;;;;;;;1.65;100.00;103927.22;5026496;28;19946;-76
2022/01/18 04:14:47;;;;;;;;;;;;;;;1.60;100.00;103908.00;5045357;28;20027;-77
2022/01/18 04:27:49;;;;;;;;;;;;;;;1.63;100.00;103931.44;5026263;28;19924;-77
2022/01/18 04:30:14;;;;;;;;;;;;;;;1.66;100.00;103931.56;5021406;28;19928;-77
2022/01/18 04:32:39;;;;;;;;;;;;;;;1.73;100.00;103934.41;5024395;28;19935;-78
2022/01/18 04:35:05;;;;;;;;;;;;;;;1.70;100.00;103928.28;5057215;28;20382;-77
2022/01/18 04:37:30;;;;;;;;;;;;;;;1.72;100.00;103923.13;5026140;28;20478;-79
2022/01/18 04:39:57;;;;;;;;;;;;;;;1.73;100.00;103932.69;5024259;28;20087;-80
2022/01/18 04:50:25;;;;;;;;;;;;;;;1.77;100.00;103915.53;5026270;28;19990;-77
2022/01/18 04:52:50;;;;;;;;;;;;;;;1.81;100.00;103912.25;5019833;28;20023;-78
2022/01/18 04:55:17;;;;;;;;;;;;;;;1.70;100.00;103912.72;5023630;28;19917;-73
2022/01/18 05:00:24;;;;;;;;;;;;;;;1.56;100.00;103913.88;5025971;28;20035;-73
2022/01/18 05:02:49;;;;;;;;;;;;;;;1.54;100.00;103908.63;5023370;28;20012;-76
2022/01/18 05:05:23;;;;;;;;;;;;;;;1.60;100.00;103908.00;5023342;28;19917;-76
2022/01/18 05:07:49;;;;;;;;;;;;;;;1.60;100.00;103908.00;5022373;28;19925;-79
2022/01/18 05:10:16;;;;;;;;;;;;;;;1.60;100.00;103909.72;5021942;28;20393;-79
2022/01/18 05:12:47;;;;;;;;;;;;;;;1.49;100.00;103917.03;5027630;28;20405;-78
2022/01/18 05:15:37;;;;;;;;;;;;;;;1.45;100.00;103912.53;5013410;28;20394;-79
2022/01/18 05:20:56;;;;;;;;;;;;;;;1.43;100.00;103911.63;5019356;28;19929;-79
2022/01/18 05:23:22;;;;;;;;;;;;;;;1.52;100.00;103914.59;5042447;28;19917;-80
2022/01/18 05:25:47;;;;;;;;;;;;;;;1.58;100.00;103914.81;5026447;28;19932;-78
2022/01/18 05:28:13;;;;;;;;;;;;;;;1.66;100.00;103912.53;5019781;28;20064;-75
2022/01/18 05:30:39;;;;;;;;;;;;;;;1.60;100.00;103918.34;5024016;28;19925;-78
2022/01/18 05:33:04;;;;;;;;;;;;;;;1.55;100.00;103917.28;5021516;28;19925;-72
2022/01/18 05:35:30;;;;;;;;;;;;;;;1.48;100.00;103907.50;5017452;28;20031;-73
2022/01/18 05:37:55;;;;;;;;;;;;;;;1.38;100.00;103907.13;5015703;28;19921;-74
2022/01/18 05:40:21;;;;;;;;;;;;;;;1.27;100.00;103910.97;5016464;28;19921;-73
2022/01/18 05:42:46;;;;;;;;;;;;;;;1.25;100.00;103907.41;5017162;28;19918;-74
2022/01/18 05:45:12;;;;;;;;;;;;;;;1.29;100.00;103923.97;5018774;28;20378;-75
2022/01/18 05:47:38;;;;;;;;;;;;;;;1.35;100.00;103922.53;5029011;28;20649;-74
2022/01/18 05:50:04;;;;;;;;;;;;;;;1.35;100.00;103922.53;5042343;28;19960;-73
2022/01/18 05:52:30;;;;;;;;;;;;;;;1.38;100.00;103921.75;5037786;28;19928;-73
2022/01/18 05:54:55;;;;;;;;;;;;;;;1.32;100.00;103913.75;5005247;28;19917;-74
2022/01/18 05:57:20;;;;;;;;;;;;;;;1.30;100.00;103908.50;5038893;28;20426;-74
2022/01/18 05:59:47;;;;;;;;;;;;;;;1.36;100.00;103903.56;5040644;28;19974;-80
2022/01/18 06:07:34;;;;;;;;;;;;;;;1.51;100.00;103900.72;5006196;28;19948;-77
2022/01/18 06:10:00;;;;;;;;;;;;;;;1.47;100.00;103916.97;5017801;28;19929;-75
2022/01/18 06:12:27;;;;;;;;;;;;;;;1.39;100.00;103923.53;5024447;28;19992;-75
2022/01/18 06:14:53;;;;;;;;;;;;;;;1.35;100.00;103922.53;5018588;28;19940;-72
2022/01/18 06:17:18;;;;;;;;;;;;;;;1.28;100.00;103919.59;5023157;28;19983;-72
2022/01/18 06:19:43;;;;;;;;;;;;;;;1.33;100.00;103928.47;5026675;28;19928;-72
2022/01/18 06:22:09;;;;;;;;;;;;;;;1.30;100.00;103928.34;5024539;28;19921;-71
2022/01/18 06:24:34;;;;;;;;;;;;;;;1.32;100.00;103929.28;5024205;28;19932;-73
2022/01/18 06:26:59;;;;;;;;;;;;;;;1.34;100.00;103923.34;5021016;28;19925;-77
2022/01/18 06:29:24;;;;;;;;;;;;;;;1.38;100.00;103926.94;5017575;28;19982;-79
2022/01/18 06:31:50;;;;;;;;;;;;;;;1.43;100.00;103929.75;5016508;28;20055;-78
2022/01/18 06:34:15;;;;;;;;;;;;;;;1.38;100.00;103932.13;5013255;28;19918;-78
2022/01/18 06:36:41;;;;;;;;;;;;;;;1.30;100.00;103924.06;5017342;28;19921;-79
2022/01/18 06:39:07;;;;;;;;;;;;;;;1.25;100.00;103929.84;5058075;28;20454;-78
2022/01/18 06:41:32;;;;;;;;;;;;;;;1.25;100.00;103927.28;5014901;28;20008;-78
2022/01/18 06:43:57;;;;;;;;;;;;;;;1.33;100.00;103933.66;5018111;28;20020;-76
2022/01/18 06:46:23;;;;;;;;;;;;;;;1.39;100.00;103934.78;5032614;28;19921;-76
2022/01/18 06:48:48;;;;;;;;;;;;;;;1.43;100.00;103927.16;5026188;28;19928;-76
2022/01/18 06:51:14;;;;;;;;;;;;;;;1.39;100.00;103929.63;5023261;28;19925;-78
2022/01/18 06:53:45;;;;;;;;;;;;;;;1.34;100.00;103928.53;5025014;28;19921;-78
2022/01/18 06:56:10;;;;;;;;;;;;;;;1.35;100.00;103925.13;5019368;28;19928;-79
2022/01/18 06:58:35;;;;;;;;;;;;;;;1.35;100.00;103921.66;5022011;28;19921;-76
2022/01/18 07:01:01;;;;;;;;;;;;;;;1.37;100.00;103931.25;5027988;28;19921;-77
2022/01/18 07:03:26;;;;;;;;;;;;;;;1.39;100.00;103929.63;5025593;28;19917;-78
2022/01/18 07:05:51;;;;;;;;;;;;;;;1.43;100.00;103925.44;5025678;28;20288;-78
2022/01/18 07:08:17;;;;;;;;;;;;;;;1.47;100.00;103929.94;5015673;28;20062;-75
2022/01/18 07:10:42;;;;;;;;;;;;;;;1.52;100.00;103927.53;5015234;28;20484;-78
2022/01/18 07:13:09;;;;;;;;;;;;;;;1.58;100.00;103924.31;5024553;28;19933;-77
2022/01/18 07:15:35;;;;;;;;;;;;;;;1.61;100.00;103924.41;5023439;28;19979;-74
2022/01/18 07:18:00;;;;;;;;;;;;;;;1.60;100.00;103928.72;5016234;28;19990;-77
2022/01/18 07:20:25;;;;;;;;;;;;;;;1.62;100.00;103927.09;5021959;28;20362;-79
2022/01/18 07:22:50;;;;;;;;;;;;;;;1.59;100.00;103929.53;5016472;28;19917;-79
2022/01/18 07:25:17;;;;;;;;;;;;;;;1.59;100.00;103929.53;5023519;28;19928;-77
2022/01/18 07:27:43;;;;;;;;;;;;;;;1.45;100.00;103938.44;5023957;28;20006;-78
2022/01/18 07:30:09;;;;;;;;;;;;;;;1.37;100.00;103939.03;5021565;28;19999;-78
2022/01/18 07:32:35;;;;;;;;;;;;;;;1.30;100.00;103934.41;5019744;28;20280;-79
2022/01/18 07:35:02;;;;;;;;;;;;;;;1.28;100.00;103928.28;5022323;28;19936;-77
2022/01/18 07:37:27;;;;;;;;;;;;;;;1.26;100.00;103927.31;5024364;28;20378;-78
2022/01/18 07:39:53;;;;;;;;;;;;;;;1.22;100.00;103933.19;5056697;28;19991;-80
2022/01/18 07:42:19;;;;;;;;;;;;;;;1.21;100.00;103939.22;5026043;28;19928;-80
2022/01/18 07:44:45;;;;;;;;;;;;;;;1.18;100.00;103947.72;5043861;28;19928;-81
2022/01/18 07:47:10;;;;;;;;;;;;;;;1.20;100.00;103947.78;5032052;28;19940;-80
2022/01/18 07:49:35;;;;;;;;;;;;;;;1.23;100.00;103934.94;5041612;28;19920;-80
2022/01/18 07:52:01;;;;;;;;;;;;;;;1.25;100.00;103943.69;5044785;28;19920;-77
2022/01/18 07:54:26;;;;;;;;;;;;;;;1.25;100.00;103941.09;5039606;28;20239;-77
2022/01/18 07:56:51;;;;;;;;;;;;;;;1.26;100.00;103953.22;5044793;28;19948;-78
2022/01/18 07:59:17;;;;;;;;;;;;;;;1.21;100.00;103944.38;5053052;28;19975;-78
2022/01/18 08:01:42;;;;;;;;;;;;;;;1.24;100.00;103952.25;5035563;28;20350;-77
2022/01/18 08:04:08;;;;;;;;;;;;;;;1.27;100.00;103952.41;5043092;28;19927;-78
2022/01/18 08:06:33;;;;;;;;;;;;;;;1.27;100.00;103942.03;5036456;28;19921;-80
2022/01/18 08:08:58;;;;;;;;;;;;;;;1.31;100.00;103949.13;5042004;28;19975;-80
2022/01/18 08:11:23;;;;;;;;;;;;;;;1.37;100.00;103953.69;5041332;28;19921;-80
2022/01/18 08:13:50;;;;;;;;;;;;;;;1.42;100.00;103948.69;5045013;28;19928;-81
2022/01/18 08:18:57;;;;;;;;;;;;;;;1.48;100.00;103949.84;5035852;28;19929;-81
2022/01/18 08:21:23;;;;;;;;;;;;;;;1.50;100.00;103943.00;5037524;28;19925;-76
2022/01/18 08:23:49;;;;;;;;;;;;;;;1.58;100.00;103945.91;5041834;28;20154;-77
2022/01/18 08:26:14;;;;;;;;;;;;;;;1.66;100.00;103944.50;5041289;28;19935;-75
2022/01/18 08:28:40;;;;;;;;;;;;;;;1.75;100.00;103940.53;5032948;28;19927;-75
2022/01/18 08:31:05;;;;;;;;;;;;;;;1.79;100.00;103938.13;5044553;28;19923;-76
2022/01/18 08:33:31;;;;;;;;;;;;;;;1.83;100.00;103940.00;5036174;28;20370;-77
2022/01/18 08:35:59;;;;;;;;;;;;;;;1.95;100.00;103947.41;5033896;28;19917;-76
2022/01/18 08:38:25;;;;;;;;;;;;;;;2.12;100.00;103939.38;5039279;28;20018;-77
2022/01/18 08:40:50;;;;;;;;;;;;;;;2.23;100.00;103942.41;5041722;28;19916;-75
2022/01/18 08:43:15;;;;;;;;;;;;;;;2.36;100.00;103946.34;5042954;28;20293;-77
2022/01/18 08:45:41;;;;;;;;;;;;;;;2.36;100.00;103952.44;5039326;28;20390;-75
2022/01/18 08:48:06;;;;;;;;;;;;;;;2.44;100.00;103944.94;5024066;28;19917;-76
2022/01/18 08:50:31;;;;;;;;;;;;;;;2.65;100.00;103946.56;5041004;28;19975;-77
2022/01/18 08:52:57;;;;;;;;;;;;;;;2.57;100.00;103943.69;5041973;28;20337;-76
2022/01/18 08:55:22;;;;;;;;;;;;;;;2.51;100.00;103941.75;5021610;28;19928;-76
2022/01/18 08:57:47;;;;;;;;;;;;;;;2.47;100.00;103950.25;5042593;28;19995;-77
2022/01/18 09:00:15;;;;;;;;;;;;;;;2.48;100.00;103950.28;5043211;28;19917;-78
2022/01/18 09:02:40;;;;;;;;;;;;;;;2.41;100.00;103944.84;5044716;28;20360;-76
2022/01/18 09:05:05;;;;;;;;;;;;;;;2.47;100.00;103950.25;5044571;28;19917;-78
2022/01/18 09:07:32;;;;;;;;;;;;;;;2.31;100.00;103947.09;5042993;28;19925;-77
2022/01/18 09:10:05;;;;;;;;;;;;;;;2.24;100.00;103942.47;5023811;28;20464;-76
2022/01/18 09:12:30;;;;;;;;;;;;;;;2.24;100.00;103939.00;5027688;28;19924;-77
2022/01/18 09:14:55;;;;;;;;;;;;;;;2.37;100.00;103945.53;5044650;28;19921;-76
2022/01/18 09:17:21;;;;;;;;;;;;;;;2.37;100.00;103951.59;5042341;28;20368;-77
2022/01/18 09:19:46;;;;;;;;;;;;;;;2.53;100.00;103955.69;5044880;28;19995;-77
2022/01/18 09:22:11;;;;;;;;;;;;;;;2.53;100.00;103947.88;5043250;28;19924;-78
2022/01/18 09:24:36;;;;;;;;;;;;;;;2.50;100.00;103950.38;5046302;28;19967;-77
2022/01/18 09:27:02;;;;;;;;;;;;;;;2.51;100.00;103953.81;5044012;28;20364;-77
2022/01/18 09:29:28;;;;;;;;;;;;;;;2.45;100.00;103955.38;5044869;28;19971;-77
2022/01/18 09:31:53;;;;;;;;;;;;;;;2.56;100.00;103958.38;5043172;28;20032;-77
2022/01/18 09:34:19;;;;;;;;;;;;;;;2.58;100.00;103958.44;5033721;28;20328;-76
2022/01/18 09:36:44;;;;;;;;;;;;;;;2.60;100.00;103959.34;5039553;28;19921;-77
2022/01/18 09:39:10;;;;;;;;;;;;;;;2.63;100.00;103950.00;5044967;28;19927;-78
2022/01/18 09:41:39;;;;;;;;;;;;;;;2.62;100.00;103962.91;5039122;28;20393;-77
2022/01/18 09:44:05;;;;;;;;;;;;;;;2.78;100.00;103959.16;5039917;28;19925;-76
2022/01/18 09:46:30;;;;;;;;;;;;;;;2.71;100.00;103958.03;5040121;28;20348;-75
2022/01/18 09:48:56;;;;;;;;;;;;;;;2.61;100.00;103961.13;5044298;28;20453;-74
2022/01/18 09:51:22;;;;;;;;;;;;;;;2.63;100.00;103965.56;5040175;28;19928;-75
2022/01/18 09:53:47;;;;;;;;;;;;;;;2.62;100.00;103963.81;5042874;28;19929;-77
2022/01/18 09:56:12;;;;;;;;;;;;;;;2.63;100.00;103973.34;5044208;28;19927;-75
2022/01/18 09:58:37;;;;;;;;;;;;;;;2.67;100.00;103974.34;5046123;28;19929;-76
2022/01/18 10:01:04;;;;;;;;;;;;;;;2.98;100.00;103974.59;5040910;28;19925;-77
2022/01/18 10:03:30;;;;;;;;;;;;;;;2.81;100.00;103976.59;5057218;28;20292;-77
2022/01/18 10:05:56;;;;;;;;;;;;;;;2.92;100.00;103977.84;5043377;28;19916;-77
2022/01/18 10:08:21;;;;;;;;;;;;;;;3.12;100.00;103980.28;5041634;28;20449;-76
2022/01/18 10:11:02;;;;;;;;;;;;;;;3.12;100.00;103978.53;5045346;28;20012;-76
2022/01/18 10:13:29;;;;;;;;;;;;;;;2.99;100.00;103973.75;5030783;28;19921;-76
2022/01/18 10:16:09;;;;;;;;;;;;;;;3.08;100.00;103976.69;5031858;28;20007;-77
2022/01/18 10:18:52;;;;;;;;;;;;;;;2.98;100.00;103980.66;5041698;28;19928;-76
2022/01/18 10:21:35;;;;;;;;;;;;;;;2.85;100.00;103984.53;5044684;28;20789;-76
2022/01/18 10:24:16;;;;;;;;;;;;;;;2.57;100.00;103985.22;5046689;28;19931;-77
2022/01/18 10:26:42;;;;;;;;;;;;;;;2.42;100.00;103981.22;5043381;28;19978;-77
2022/01/18 10:29:08;;;;;;;;;;;;;;;2.41;100.00;103973.38;5020999;28;19917;-76
2022/01/18 10:37:12;;;;;;;;;;;;;;;2.36;100.00;103974.91;5037023;28;19917;-76
2022/01/18 10:39:37;;;;;;;;;;;;;;;2.40;100.00;103969.00;5018943;28;19929;-76
2022/01/18 10:42:18;;;;;;;;;;;;;;;2.39;100.00;103962.03;5043808;28;20309;-75
2022/01/18 10:44:46;;;;;;;;;;;;;;;2.48;100.00;103962.38;5044274;28;19927;-77
2022/01/18 10:47:11;;;;;;;;;;;;;;;2.50;100.00;103962.44;5041945;28;19943;-77
2022/01/18 10:52:21;;;;;;;;;;;;;;;2.46;100.00;103961.44;5039378;28;19921;-78
2022/01/18 10:55:02;;;;;;;;;;;;;;;2.47;100.00;103963.22;5046080;28;19917;-77
2022/01/18 10:57:28;;;;;;;;;;;;;;;2.59;100.00;103962.81;5044486;28;19921;-76
2022/01/18 11:00:09;;;;;;;;;;;;;;;2.61;100.00;103962.03;5044325;28;19932;-76
2022/01/18 11:02:35;;;;;;;;;;;;;;;2.73;100.00;103965.91;5021547;28;20294;-77
2022/01/18 11:05:10;;;;;;;;;;;;;;;2.76;100.00;103963.41;5025803;28;20686;-76
2022/01/18 11:07:37;;;;;;;;;;;;;;;2.77;100.00;103970.38;5021866;28;19925;-77
2022/01/18 11:10:05;;;;;;;;;;;;;;;2.79;100.00;103960.94;5024618;28;19925;-77
2022/01/18 11:12:31;;;;;;;;;;;;;;;2.86;100.00;103964.63;5020189;28;19943;-76
2022/01/18 11:20:19;;;;;;;;;;;;;;;2.93;100.00;103958.81;5026043;28;20739;-76
2022/01/18 11:22:47;;;;;;;;;;;;;;;2.98;100.00;103959.88;5023901;28;19950;-77
2022/01/18 11:25:12;;;;;;;;;;;;;;;3.09;100.00;103955.94;5017468;28;20057;-76
2022/01/18 11:27:39;;;;;;;;;;;;;;;3.18;100.00;103951.91;5027128;28;19928;-77
2022/01/18 11:30:06;;;;;;;;;;;;;;;3.25;100.00;103946.97;5023194;28;19987;-77
2022/01/18 11:32:32;;;;;;;;;;;;;;;3.31;100.00;103948.91;5024514;28;19927;-77
2022/01/18 11:34:57;;;;;;;;;;;;;;;3.28;100.00;103948.78;5025415;28;20008;-77
2022/01/18 11:37:38;;;;;;;;;;;;;;;3.13;100.00;103943.94;5033521;28;19917;-75
2022/01/18 11:40:06;;;;;;;;;;;;;;;3.07;100.00;103946.34;5017573;28;19932;-75
2022/01/18 11:42:49;;;;;;;;;;;;;;;3.09;100.00;103937.75;5015915;28;19925;-77
2022/01/18 11:45:30;;;;;;;;;;;;;;;3.03;100.00;103934.06;5026426;28;19924;-77
2022/01/18 11:48:11;;;;;;;;;;;;;;;2.94;100.00;103940.72;5020912;28;20394;-79
2022/01/18 11:50:52;;;;;;;;;;;;;;;2.97;100.00;103939.94;5025674;28;19939;-75
2022/01/18 11:53:41;;;;;;;;;;;;;;;3.05;100.00;103942.81;5019561;28;20444;-76
2022/01/18 11:56:11;;;;;;;;;;;;;;;3.12;100.00;103931.78;5019540;28;19917;-76
2022/01/18 11:58:36;;;;;;;;;;;;;;;3.09;100.00;103939.47;5027690;28;19925;-76
2022/01/18 12:01:03;;;;;;;;;;;;;;;3.18;100.00;103941.50;5019633;28;20385;-76
2022/01/18 12:03:43;;;;;;;;;;;;;;;3.14;100.00;103945.72;5027219;28;19929;-76
2022/01/18 12:06:09;;;;;;;;;;;;;;;3.18;100.00;103949.31;5025630;28;20025;-76
2022/01/18 12:08:50;;;;;;;;;;;;;;;3.09;100.00;103948.16;5025689;28;20016;-77
2022/01/18 12:11:31;;;;;;;;;;;;;;;3.07;100.00;103949.81;5020206;28;19918;-76
2022/01/18 12:13:57;;;;;;;;;;;;;;;3.20;100.00;103939.84;5027336;28;20342;-77
2022/01/18 12:16:26;;;;;;;;;;;;;;;3.23;100.00;103932.16;5025599;28;19925;-77
2022/01/18 12:19:07;;;;;;;;;;;;;;;3.21;100.00;103926.91;5020543;28;19925;-75
2022/01/18 12:21:33;;;;;;;;;;;;;;;3.17;100.00;103925.06;5029136;28;19936;-74
2022/01/18 12:24:13;;;;;;;;;;;;;;;3.18;100.00;103925.91;5039101;28;19933;-75
2022/01/18 12:26:42;;;;;;;;;;;;;;;3.24;100.00;103929.59;5024543;28;20386;-77
2022/01/18 12:34:28;;;;;;;;;;;;;;;3.37;100.00;103924.84;5027123;28;19928;-78
2022/01/18 12:39:49;;;;;;;;;;;;;;;3.49;100.00;103913.94;5025979;28;20344;-76
2022/01/18 12:44:20;;;;;;;;;;;;;;;3.44;100.00;103911.19;5026347;28;20426;-76
2022/01/18 12:45:16;;;;;;;;;;;;;;;3.49;100.00;103903.53;5018148;28;19917;-75
2022/01/18 12:47:59;;;;;;;;;;;;;;;3.44;100.00;103903.41;5062319;28;20062;-76
2022/01/18 12:50:24;;;;;;;;;;;;;;;3.49;100.00;103901.84;5018851;28;19921;-77
2022/01/18 12:53:05;;;;;;;;;;;;;;;3.50;100.00;103901.03;5024497;28;19944;-76
2022/01/18 12:55:46;;;;;;;;;;;;;;;3.46;100.00;103899.13;5048424;28;20427;-75
2022/01/18 12:58:14;;;;;;;;;;;;;;;3.50;100.00;103900.13;5041684;28;20032;-76
2022/01/18 13:00:55;;;;;;;;;;;;;;;3.58;100.00;103902.97;5047659;28;19929;-76
2022/01/18 13:03:20;;;;;;;;;;;;;;;3.66;100.00;103897.19;5019682;28;19921;-76
2022/01/18 13:05:46;;;;;;;;;;;;;;;3.55;100.00;103896.84;5029433;28;20489;-76
2022/01/18 13:08:12;;;;;;;;;;;;;;;3.54;100.00;103895.06;5020828;28;19933;-77
2022/01/18 13:10:53;;;;;;;;;;;;;;;3.62;100.00;103890.13;5033111;28;20175;-75
2022/01/18 13:13:21;;;;;;;;;;;;;;;3.55;100.00;103888.16;5034869;28;19928;-75
2022/01/18 13:26:26;;;;;;;;;;;;;;;3.63;100.00;103891.88;5032414;28;19924;-76
2022/01/18 13:28:52;;;;;;;;;;;;;;;3.70;100.00;103891.22;5048079;28;20374;-75
2022/01/18 13:31:32;;;;;;;;;;;;;;;3.74;100.00;103883.53;5051592;28;19927;-77
2022/01/18 13:34:00;;;;;;;;;;;;;;;3.77;100.00;103894.03;5064127;28;20161;-75
2022/01/18 13:36:29;;;;;;;;;;;;;;;3.76;100.00;103884.47;5028722;28;20039;-75
2022/01/18 13:38:54;;;;;;;;;;;;;;;3.80;100.00;103876.81;5026848;28;19920;-76
2022/01/18 13:41:20;;;;;;;;;;;;;;;3.72;100.00;103870.50;5028566;28;19924;-76
2022/01/18 13:43:47;;;;;;;;;;;;;;;3.75;100.00;103874.91;5027460;28;19971;-77
2022/01/18 13:46:21;;;;;;;;;;;;;;;3.75;100.00;103875.78;5033719;28;19927;-81
2022/01/18 13:48:46;;;;;;;;;;;;;;;3.72;100.00;103878.31;5029937;28;19921;-81
2022/01/18 13:53:57;;;;;;;;;;;;;;;3.77;100.00;103871.50;5038637;28;19921;-82
2022/01/18 13:56:23;;;;;;;;;;;;;;;3.79;100.00;103866.38;5025039;28;19921;-81
2022/01/18 13:58:51;;;;;;;;;;;;;;;3.82;100.00;103864.75;5044440;28;20453;-82
2022/01/18 14:01:31;;;;;;;;;;;;;;;3.87;100.00;103865.75;5040901;28;20494;-81
2022/01/18 14:03:59;;;;;;;;;;;;;;;3.90;100.00;103862.38;5041695;28;19917;-82
2022/01/18 14:06:40;;;;;;;;;;;;;;;3.92;100.00;103850.28;5044938;28;20379;-82
2022/01/18 14:09:07;;;;;;;;;;;;;;;3.95;100.00;103849.50;5032185;28;19928;-82
2022/01/18 14:11:35;;;;;;;;;;;;;;;3.87;100.00;103849.28;5042596;28;19936;-82
2022/01/18 14:16:57;;;;;;;;;;;;;;;3.82;100.00;103837.84;5044667;28;19928;-81
2022/01/18 14:22:33;;;;;;;;;;;;;;;3.85;100.00;103832.75;5021061;28;20377;-80
2022/01/18 14:25:01;;;;;;;;;;;;;;;3.89;100.00;103837.22;5021639;28;19921;-81
2022/01/18 14:27:43;;;;;;;;;;;;;;;3.91;100.00;103837.25;5016749;28;20008;-81
2022/01/18 14:30:24;;;;;;;;;;;;;;;3.95;100.00;103839.97;5026044;28;20372;-81
2022/01/18 14:32:50;;;;;;;;;;;;;;;3.95;100.00;103831.31;5019085;28;19944;-79
2022/01/18 14:35:31;;;;;;;;;;;;;;;3.94;100.00;103832.13;5028014;28;19971;-80
2022/01/18 14:38:12;;;;;;;;;;;;;;;3.93;100.00;103827.78;5026014;28;19980;-81
2022/01/18 14:40:54;;;;;;;;;;;;;;;3.97;100.00;103829.63;5022970;28;20379;-81
2022/01/18 14:48:40;;;;;;;;;;;;;;;4.73;100.00;103822.19;5027703;28;19993;-80